sensor_id;sensor_type;location;lat;lon;timestamp;P1;durP1;ratioP1;P2;durP2;ratioP2
79074;SDS011;68476;42.710;23.388;2023-11-21T00:01:52;38.58;;;22.00;;
79074;SDS011;68476;42.710;23.388;2023-11-21T00:04:18;31.30;;;18.17;;
79074;SDS011;68476;42.710;23.388;2023-11-21T00:06:43;34.33;;;18.83;;
79074;SDS011;68476;42.710;23.388;2023-11-21T00:09:11;33.72;;;18.15;;
79074;SDS011;68476;42.710;23.388;2023-11-21T00:11:38;31.23;;;18.05;;
79074;SDS011;68476;42.710;23.388;2023-11-21T00:14:03;30.55;;;18.02;;
79074;SDS011;68476;42.710;23.388;2023-11-21T00:16:28;30.73;;;19.00;;
79074;SDS011;68476;42.710;23.388;2023-11-21T00:18:54;34.90;;;18.25;;
79074;SDS011;68476;42.710;23.388;2023-11-21T00:21:20;32.55;;;19.15;;
79074;SDS011;68476;42.710;23.388;2023-11-21T00:23:45;21.80;;;14.68;;
79074;SDS011;68476;42.710;23.388;2023-11-21T00:26:10;29.73;;;15.63;;
79074;SDS011;68476;42.710;23.388;2023-11-21T00:28:36;30.80;;;15.93;;
79074;SDS011;68476;42.710;23.388;2023-11-21T00:31:01;28.40;;;17.13;;
79074;SDS011;68476;42.710;23.388;2023-11-21T00:33:26;28.20;;;16.30;;
79074;SDS011;68476;42.710;23.388;2023-11-21T00:35:52;27.48;;;17.33;;
79074;SDS011;68476;42.710;23.388;2023-11-21T00:38:17;33.20;;;20.07;;
79074;SDS011;68476;42.710;23.388;2023-11-21T00:40:45;32.70;;;17.95;;
79074;SDS011;68476;42.710;23.388;2023-11-21T00:43:10;33.47;;;19.75;;
79074;SDS011;68476;42.710;23.388;2023-11-21T00:45:35;36.75;;;20.33;;
79074;SDS011;68476;42.710;23.388;2023-11-21T00:48:01;34.70;;;18.55;;
79074;SDS011;68476;42.710;23.388;2023-11-21T00:50:27;33.78;;;19.60;;
79074;SDS011;68476;42.710;23.388;2023-11-21T00:52:52;31.63;;;19.30;;
79074;SDS011;68476;42.710;23.388;2023-11-21T00:55:17;34.22;;;20.48;;
79074;SDS011;68476;42.710;23.388;2023-11-21T00:57:43;38.17;;;20.45;;
79074;SDS011;68476;42.710;23.388;2023-11-21T01:00:08;36.80;;;21.17;;
79074;SDS011;68476;42.710;23.388;2023-11-21T01:02:42;34.30;;;20.70;;
79074;SDS011;68476;42.710;23.388;2023-11-21T01:05:08;35.22;;;19.13;;
79074;SDS011;68476;42.710;23.388;2023-11-21T01:07:34;35.35;;;20.08;;
79074;SDS011;68476;42.710;23.388;2023-11-21T01:09:59;33.75;;;19.13;;
79074;SDS011;68476;42.710;23.388;2023-11-21T01:12:24;32.30;;;20.87;;
79074;SDS011;68476;42.710;23.388;2023-11-21T01:14:50;38.90;;;21.00;;
79074;SDS011;68476;42.710;23.388;2023-11-21T01:17:16;39.13;;;22.55;;
79074;SDS011;68476;42.710;23.388;2023-11-21T01:19:41;38.50;;;21.27;;
79074;SDS011;68476;42.710;23.388;2023-11-21T01:22:07;37.67;;;22.85;;
79074;SDS011;68476;42.710;23.388;2023-11-21T01:24:32;31.15;;;18.85;;
79074;SDS011;68476;42.710;23.388;2023-11-21T01:26:57;33.47;;;19.10;;
79074;SDS011;68476;42.710;23.388;2023-11-21T01:29:22;32.57;;;20.20;;
79074;SDS011;68476;42.710;23.388;2023-11-21T01:31:48;30.38;;;18.95;;
79074;SDS011;68476;42.710;23.388;2023-11-21T01:34:13;30.43;;;17.23;;
79074;SDS011;68476;42.710;23.388;2023-11-21T01:36:39;31.27;;;17.63;;
79074;SDS011;68476;42.710;23.388;2023-11-21T01:39:04;31.17;;;18.83;;
79074;SDS011;68476;42.710;23.388;2023-11-21T01:41:33;27.25;;;17.30;;
79074;SDS011;68476;42.710;23.388;2023-11-21T01:44:00;32.70;;;20.42;;
79074;SDS011;68476;42.710;23.388;2023-11-21T01:46:25;33.33;;;19.60;;
79074;SDS011;68476;42.710;23.388;2023-11-21T01:48:50;27.48;;;16.27;;
79074;SDS011;68476;42.710;23.388;2023-11-21T01:51:16;29.60;;;16.35;;
79074;SDS011;68476;42.710;23.388;2023-11-21T01:53:41;32.38;;;18.88;;
79074;SDS011;68476;42.710;23.388;2023-11-21T01:56:07;31.10;;;18.02;;
79074;SDS011;68476;42.710;23.388;2023-11-21T01:58:33;30.73;;;19.50;;
79074;SDS011;68476;42.710;23.388;2023-11-21T02:00:59;28.50;;;16.10;;
79074;SDS011;68476;42.710;23.388;2023-11-21T02:03:24;24.13;;;14.68;;
79074;SDS011;68476;42.710;23.388;2023-11-21T02:05:51;28.25;;;17.00;;
79074;SDS011;68476;42.710;23.388;2023-11-21T02:08:17;31.88;;;15.90;;
79074;SDS011;68476;42.710;23.388;2023-11-21T02:10:44;26.20;;;15.00;;
79074;SDS011;68476;42.710;23.388;2023-11-21T02:13:09;17.83;;;12.40;;
79074;SDS011;68476;42.710;23.388;2023-11-21T02:15:35;21.92;;;12.93;;
79074;SDS011;68476;42.710;23.388;2023-11-21T02:18:01;23.00;;;13.02;;
79074;SDS011;68476;42.710;23.388;2023-11-21T02:20:28;13.35;;;8.30;;
79074;SDS011;68476;42.710;23.388;2023-11-21T02:22:55;19.48;;;11.60;;
79074;SDS011;68476;42.710;23.388;2023-11-21T02:25:24;22.05;;;14.15;;
79074;SDS011;68476;42.710;23.388;2023-11-21T02:27:49;43.40;;;21.38;;
79074;SDS011;68476;42.710;23.388;2023-11-21T02:30:15;34.95;;;18.67;;
79074;SDS011;68476;42.710;23.388;2023-11-21T02:32:41;36.53;;;19.92;;
79074;SDS011;68476;42.710;23.388;2023-11-21T02:35:08;42.67;;;26.00;;
79074;SDS011;68476;42.710;23.388;2023-11-21T02:37:33;43.72;;;23.75;;
79074;SDS011;68476;42.710;23.388;2023-11-21T02:40:00;45.50;;;23.48;;
79074;SDS011;68476;42.710;23.388;2023-11-21T02:42:25;42.95;;;22.70;;
79074;SDS011;68476;42.710;23.388;2023-11-21T02:44:50;45.28;;;23.45;;
79074;SDS011;68476;42.710;23.388;2023-11-21T02:47:16;36.75;;;21.02;;
79074;SDS011;68476;42.710;23.388;2023-11-21T02:49:41;32.83;;;18.48;;
79074;SDS011;68476;42.710;23.388;2023-11-21T02:52:06;41.55;;;21.23;;
79074;SDS011;68476;42.710;23.388;2023-11-21T02:54:31;40.75;;;24.60;;
79074;SDS011;68476;42.710;23.388;2023-11-21T02:59:27;37.80;;;22.27;;
79074;SDS011;68476;42.710;23.388;2023-11-21T03:01:52;32.95;;;19.38;;
79074;SDS011;68476;42.710;23.388;2023-11-21T03:04:18;40.88;;;22.52;;
79074;SDS011;68476;42.710;23.388;2023-11-21T03:06:44;46.78;;;24.00;;
79074;SDS011;68476;42.710;23.388;2023-11-21T03:09:10;44.30;;;24.70;;
79074;SDS011;68476;42.710;23.388;2023-11-21T03:11:37;44.00;;;23.88;;
79074;SDS011;68476;42.710;23.388;2023-11-21T03:14:02;39.22;;;23.25;;
79074;SDS011;68476;42.710;23.388;2023-11-21T03:16:27;40.10;;;23.42;;
79074;SDS011;68476;42.710;23.388;2023-11-21T03:18:54;36.92;;;20.85;;
79074;SDS011;68476;42.710;23.388;2023-11-21T03:21:19;34.75;;;24.35;;
79074;SDS011;68476;42.710;23.388;2023-11-21T03:23:44;40.65;;;21.27;;
79074;SDS011;68476;42.710;23.388;2023-11-21T03:26:13;42.35;;;26.08;;
79074;SDS011;68476;42.710;23.388;2023-11-21T03:28:38;42.95;;;25.15;;
79074;SDS011;68476;42.710;23.388;2023-11-21T03:31:04;40.97;;;24.88;;
79074;SDS011;68476;42.710;23.388;2023-11-21T03:33:31;43.97;;;25.48;;
79074;SDS011;68476;42.710;23.388;2023-11-21T03:35:56;42.97;;;23.17;;
79074;SDS011;68476;42.710;23.388;2023-11-21T03:38:22;36.20;;;21.88;;
79074;SDS011;68476;42.710;23.388;2023-11-21T03:40:47;35.08;;;22.80;;
79074;SDS011;68476;42.710;23.388;2023-11-21T03:43:13;33.58;;;20.23;;
79074;SDS011;68476;42.710;23.388;2023-11-21T03:45:38;38.50;;;22.17;;
79074;SDS011;68476;42.710;23.388;2023-11-21T03:48:05;37.47;;;21.63;;
79074;SDS011;68476;42.710;23.388;2023-11-21T03:50:31;39.75;;;23.70;;
79074;SDS011;68476;42.710;23.388;2023-11-21T03:52:56;35.92;;;22.73;;
79074;SDS011;68476;42.710;23.388;2023-11-21T03:55:22;40.00;;;24.20;;
79074;SDS011;68476;42.710;23.388;2023-11-21T03:57:49;38.83;;;23.80;;
79074;SDS011;68476;42.710;23.388;2023-11-21T04:00:14;38.85;;;24.65;;
79074;SDS011;68476;42.710;23.388;2023-11-21T04:02:39;38.13;;;22.33;;
79074;SDS011;68476;42.710;23.388;2023-11-21T04:05:05;41.95;;;24.40;;
79074;SDS011;68476;42.710;23.388;2023-11-21T04:07:32;37.53;;;23.23;;
79074;SDS011;68476;42.710;23.388;2023-11-21T04:09:57;40.50;;;22.60;;
79074;SDS011;68476;42.710;23.388;2023-11-21T04:12:22;39.25;;;24.13;;
79074;SDS011;68476;42.710;23.388;2023-11-21T04:14:48;38.38;;;20.38;;
79074;SDS011;68476;42.710;23.388;2023-11-21T04:17:13;38.83;;;23.70;;
79074;SDS011;68476;42.710;23.388;2023-11-21T04:19:38;33.55;;;21.95;;
79074;SDS011;68476;42.710;23.388;2023-11-21T04:22:03;36.13;;;23.92;;
79074;SDS011;68476;42.710;23.388;2023-11-21T04:24:29;38.05;;;22.92;;
79074;SDS011;68476;42.710;23.388;2023-11-21T04:26:54;39.13;;;23.25;;
79074;SDS011;68476;42.710;23.388;2023-11-21T04:29:19;32.80;;;20.73;;
79074;SDS011;68476;42.710;23.388;2023-11-21T04:31:45;31.67;;;18.67;;
79074;SDS011;68476;42.710;23.388;2023-11-21T04:34:11;32.90;;;19.13;;
79074;SDS011;68476;42.710;23.388;2023-11-21T04:36:36;35.20;;;21.05;;
79074;SDS011;68476;42.710;23.388;2023-11-21T04:39:02;29.42;;;17.75;;
79074;SDS011;68476;42.710;23.388;2023-11-21T04:41:27;26.70;;;15.65;;
79074;SDS011;68476;42.710;23.388;2023-11-21T04:43:52;22.67;;;14.27;;
79074;SDS011;68476;42.710;23.388;2023-11-21T04:46:18;24.77;;;13.75;;
79074;SDS011;68476;42.710;23.388;2023-11-21T04:48:43;22.58;;;13.70;;
79074;SDS011;68476;42.710;23.388;2023-11-21T04:51:09;20.83;;;13.15;;
79074;SDS011;68476;42.710;23.388;2023-11-21T04:53:34;21.92;;;13.57;;
79074;SDS011;68476;42.710;23.388;2023-11-21T04:56:00;26.52;;;14.23;;
79074;SDS011;68476;42.710;23.388;2023-11-21T04:58:25;23.70;;;16.33;;
79074;SDS011;68476;42.710;23.388;2023-11-21T05:00:51;22.77;;;14.93;;
79074;SDS011;68476;42.710;23.388;2023-11-21T05:03:16;24.87;;;14.57;;
79074;SDS011;68476;42.710;23.388;2023-11-21T05:05:41;25.95;;;15.13;;
79074;SDS011;68476;42.710;23.388;2023-11-21T05:08:07;25.40;;;15.33;;
79074;SDS011;68476;42.710;23.388;2023-11-21T05:10:33;27.67;;;16.13;;
79074;SDS011;68476;42.710;23.388;2023-11-21T05:12:59;25.73;;;15.48;;
79074;SDS011;68476;42.710;23.388;2023-11-21T05:15:24;25.33;;;15.73;;
79074;SDS011;68476;42.710;23.388;2023-11-21T05:17:50;29.02;;;15.50;;
79074;SDS011;68476;42.710;23.388;2023-11-21T05:20:17;29.73;;;16.95;;
79074;SDS011;68476;42.710;23.388;2023-11-21T05:22:45;25.52;;;16.42;;
79074;SDS011;68476;42.710;23.388;2023-11-21T05:25:11;25.27;;;15.15;;
79074;SDS011;68476;42.710;23.388;2023-11-21T05:27:36;25.17;;;14.57;;
79074;SDS011;68476;42.710;23.388;2023-11-21T05:30:02;21.83;;;14.13;;
79074;SDS011;68476;42.710;23.388;2023-11-21T05:32:30;22.67;;;14.48;;
79074;SDS011;68476;42.710;23.388;2023-11-21T05:34:55;23.92;;;13.88;;
79074;SDS011;68476;42.710;23.388;2023-11-21T05:37:20;22.07;;;13.83;;
79074;SDS011;68476;42.710;23.388;2023-11-21T05:39:46;24.27;;;15.00;;
79074;SDS011;68476;42.710;23.388;2023-11-21T05:42:11;19.27;;;11.98;;
79074;SDS011;68476;42.710;23.388;2023-11-21T05:44:38;23.05;;;13.52;;
79074;SDS011;68476;42.710;23.388;2023-11-21T05:47:06;24.67;;;15.98;;
79074;SDS011;68476;42.710;23.388;2023-11-21T05:49:32;28.10;;;16.13;;
79074;SDS011;68476;42.710;23.388;2023-11-21T05:51:58;28.92;;;17.38;;
79074;SDS011;68476;42.710;23.388;2023-11-21T05:54:24;26.38;;;18.35;;
79074;SDS011;68476;42.710;23.388;2023-11-21T05:56:50;31.75;;;19.35;;
79074;SDS011;68476;42.710;23.388;2023-11-21T05:59:15;29.73;;;16.38;;
79074;SDS011;68476;42.710;23.388;2023-11-21T06:01:40;28.95;;;16.00;;
79074;SDS011;68476;42.710;23.388;2023-11-21T06:04:05;26.15;;;15.73;;
79074;SDS011;68476;42.710;23.388;2023-11-21T06:06:33;22.40;;;15.90;;
79074;SDS011;68476;42.710;23.388;2023-11-21T06:08:58;27.15;;;17.25;;
79074;SDS011;68476;42.710;23.388;2023-11-21T06:11:23;26.83;;;16.75;;
79074;SDS011;68476;42.710;23.388;2023-11-21T06:13:49;27.80;;;16.50;;
79074;SDS011;68476;42.710;23.388;2023-11-21T06:16:15;29.10;;;15.60;;
79074;SDS011;68476;42.710;23.388;2023-11-21T06:18:42;27.40;;;16.98;;
79074;SDS011;68476;42.710;23.388;2023-11-21T06:21:11;23.63;;;14.80;;
79074;SDS011;68476;42.710;23.388;2023-11-21T06:23:36;23.45;;;15.27;;
79074;SDS011;68476;42.710;23.388;2023-11-21T06:26:02;25.13;;;15.10;;
79074;SDS011;68476;42.710;23.388;2023-11-21T06:28:27;25.48;;;15.23;;
79074;SDS011;68476;42.710;23.388;2023-11-21T06:30:52;23.95;;;14.55;;
79074;SDS011;68476;42.710;23.388;2023-11-21T06:33:18;28.65;;;17.10;;
79074;SDS011;68476;42.710;23.388;2023-11-21T06:35:43;27.92;;;15.05;;
79074;SDS011;68476;42.710;23.388;2023-11-21T06:38:09;26.17;;;15.88;;
79074;SDS011;68476;42.710;23.388;2023-11-21T06:40:34;26.90;;;16.38;;
79074;SDS011;68476;42.710;23.388;2023-11-21T06:43:00;26.07;;;14.97;;
79074;SDS011;68476;42.710;23.388;2023-11-21T06:45:25;28.15;;;15.43;;
79074;SDS011;68476;42.710;23.388;2023-11-21T06:47:51;25.73;;;15.63;;
79074;SDS011;68476;42.710;23.388;2023-11-21T06:50:16;25.60;;;16.47;;
79074;SDS011;68476;42.710;23.388;2023-11-21T06:52:41;28.08;;;16.23;;
79074;SDS011;68476;42.710;23.388;2023-11-21T06:55:08;27.02;;;16.90;;
79074;SDS011;68476;42.710;23.388;2023-11-21T06:57:33;27.85;;;16.30;;
79074;SDS011;68476;42.710;23.388;2023-11-21T06:59:58;34.50;;;18.73;;
79074;SDS011;68476;42.710;23.388;2023-11-21T07:02:24;29.77;;;18.20;;
79074;SDS011;68476;42.710;23.388;2023-11-21T07:04:49;27.20;;;17.67;;
79074;SDS011;68476;42.710;23.388;2023-11-21T07:07:15;27.83;;;18.10;;
79074;SDS011;68476;42.710;23.388;2023-11-21T07:09:40;31.92;;;18.17;;
79074;SDS011;68476;42.710;23.388;2023-11-21T07:12:05;39.20;;;20.60;;
79074;SDS011;68476;42.710;23.388;2023-11-21T07:14:33;42.63;;;25.55;;
79074;SDS011;68476;42.710;23.388;2023-11-21T07:16:58;46.45;;;26.42;;
79074;SDS011;68476;42.710;23.388;2023-11-21T07:19:24;43.05;;;25.33;;
79074;SDS011;68476;42.710;23.388;2023-11-21T07:21:49;31.27;;;19.27;;
79074;SDS011;68476;42.710;23.388;2023-11-21T07:24:16;31.25;;;20.48;;
79074;SDS011;68476;42.710;23.388;2023-11-21T07:26:41;32.00;;;19.10;;
79074;SDS011;68476;42.710;23.388;2023-11-21T07:29:07;28.45;;;17.15;;
79074;SDS011;68476;42.710;23.388;2023-11-21T07:31:32;30.67;;;18.08;;
79074;SDS011;68476;42.710;23.388;2023-11-21T07:33:59;29.30;;;19.10;;
79074;SDS011;68476;42.710;23.388;2023-11-21T07:36:25;26.75;;;17.42;;
79074;SDS011;68476;42.710;23.388;2023-11-21T07:38:50;31.08;;;18.08;;
79074;SDS011;68476;42.710;23.388;2023-11-21T07:41:16;33.35;;;18.25;;
79074;SDS011;68476;42.710;23.388;2023-11-21T07:43:42;29.55;;;18.48;;
79074;SDS011;68476;42.710;23.388;2023-11-21T07:46:07;31.65;;;20.25;;
79074;SDS011;68476;42.710;23.388;2023-11-21T07:48:33;30.02;;;18.83;;
79074;SDS011;68476;42.710;23.388;2023-11-21T07:50:59;34.00;;;18.65;;
79074;SDS011;68476;42.710;23.388;2023-11-21T07:53:25;31.15;;;18.88;;
79074;SDS011;68476;42.710;23.388;2023-11-21T07:55:50;29.83;;;19.45;;
79074;SDS011;68476;42.710;23.388;2023-11-21T07:58:16;33.88;;;20.48;;
79074;SDS011;68476;42.710;23.388;2023-11-21T08:00:41;33.33;;;19.75;;
79074;SDS011;68476;42.710;23.388;2023-11-21T08:03:07;28.88;;;19.52;;
79074;SDS011;68476;42.710;23.388;2023-11-21T08:05:32;36.65;;;21.90;;
79074;SDS011;68476;42.710;23.388;2023-11-21T08:07:57;34.10;;;20.52;;
79074;SDS011;68476;42.710;23.388;2023-11-21T08:10:23;37.70;;;21.47;;
79074;SDS011;68476;42.710;23.388;2023-11-21T08:12:48;32.03;;;20.58;;
79074;SDS011;68476;42.710;23.388;2023-11-21T08:15:15;36.55;;;21.52;;
79074;SDS011;68476;42.710;23.388;2023-11-21T08:17:40;37.75;;;21.92;;
79074;SDS011;68476;42.710;23.388;2023-11-21T08:20:06;34.30;;;22.03;;
79074;SDS011;68476;42.710;23.388;2023-11-21T08:22:33;36.05;;;22.10;;
79074;SDS011;68476;42.710;23.388;2023-11-21T08:24:59;33.45;;;22.10;;
79074;SDS011;68476;42.710;23.388;2023-11-21T08:27:24;36.33;;;20.98;;
79074;SDS011;68476;42.710;23.388;2023-11-21T08:29:52;37.15;;;21.80;;
79074;SDS011;68476;42.710;23.388;2023-11-21T08:32:18;35.95;;;22.95;;
79074;SDS011;68476;42.710;23.388;2023-11-21T08:34:43;33.60;;;22.98;;
79074;SDS011;68476;42.710;23.388;2023-11-21T08:37:09;34.33;;;22.70;;
79074;SDS011;68476;42.710;23.388;2023-11-21T08:39:36;44.20;;;23.88;;
79074;SDS011;68476;42.710;23.388;2023-11-21T08:42:02;41.53;;;25.00;;
79074;SDS011;68476;42.710;23.388;2023-11-21T08:44:27;34.65;;;23.67;;
79074;SDS011;68476;42.710;23.388;2023-11-21T08:46:53;40.25;;;25.73;;
79074;SDS011;68476;42.710;23.388;2023-11-21T08:49:18;42.37;;;27.70;;
79074;SDS011;68476;42.710;23.388;2023-11-21T08:51:44;37.03;;;25.40;;
79074;SDS011;68476;42.710;23.388;2023-11-21T08:54:09;39.78;;;24.83;;
79074;SDS011;68476;42.710;23.388;2023-11-21T08:56:35;38.30;;;25.48;;
79074;SDS011;68476;42.710;23.388;2023-11-21T08:59:00;35.35;;;24.15;;
79074;SDS011;68476;42.710;23.388;2023-11-21T09:01:27;38.28;;;24.02;;
79074;SDS011;68476;42.710;23.388;2023-11-21T09:03:52;37.00;;;25.75;;
79074;SDS011;68476;42.710;23.388;2023-11-21T09:06:18;33.42;;;23.08;;
79074;SDS011;68476;42.710;23.388;2023-11-21T09:08:43;31.75;;;23.25;;
79074;SDS011;68476;42.710;23.388;2023-11-21T09:11:08;34.58;;;23.08;;
79074;SDS011;68476;42.710;23.388;2023-11-21T09:13:34;34.28;;;22.77;;
79074;SDS011;68476;42.710;23.388;2023-11-21T09:15:59;31.33;;;23.10;;
79074;SDS011;68476;42.710;23.388;2023-11-21T09:18:25;32.53;;;21.95;;
79074;SDS011;68476;42.710;23.388;2023-11-21T09:20:50;31.75;;;20.77;;
79074;SDS011;68476;42.710;23.388;2023-11-21T09:23:15;32.38;;;22.02;;
79074;SDS011;68476;42.710;23.388;2023-11-21T09:25:40;30.90;;;20.33;;
79074;SDS011;68476;42.710;23.388;2023-11-21T09:28:06;30.65;;;19.48;;
79074;SDS011;68476;42.710;23.388;2023-11-21T09:30:34;31.40;;;19.88;;
79074;SDS011;68476;42.710;23.388;2023-11-21T09:33:00;30.70;;;19.83;;
79074;SDS011;68476;42.710;23.388;2023-11-21T09:35:26;29.08;;;19.77;;
79074;SDS011;68476;42.710;23.388;2023-11-21T09:37:53;26.90;;;17.98;;
79074;SDS011;68476;42.710;23.388;2023-11-21T09:40:19;31.55;;;20.20;;
79074;SDS011;68476;42.710;23.388;2023-11-21T09:42:56;25.00;;;19.80;;
79074;SDS011;68476;42.710;23.388;2023-11-21T09:45:28;26.73;;;17.00;;
79074;SDS011;68476;42.710;23.388;2023-11-21T09:47:54;25.52;;;16.27;;
79074;SDS011;68476;42.710;23.388;2023-11-21T09:50:23;26.25;;;17.25;;
79074;SDS011;68476;42.710;23.388;2023-11-21T09:52:54;36.33;;;21.38;;
79074;SDS011;68476;42.710;23.388;2023-11-21T09:55:20;22.42;;;15.20;;
79074;SDS011;68476;42.710;23.388;2023-11-21T09:57:47;26.83;;;16.25;;
79074;SDS011;68476;42.710;23.388;2023-11-21T10:00:13;25.83;;;17.17;;
79074;SDS011;68476;42.710;23.388;2023-11-21T10:02:42;23.77;;;16.67;;
79074;SDS011;68476;42.710;23.388;2023-11-21T10:05:08;22.42;;;16.13;;
79074;SDS011;68476;42.710;23.388;2023-11-21T10:07:36;22.67;;;13.85;;
79074;SDS011;68476;42.710;23.388;2023-11-21T10:10:04;22.08;;;13.68;;
79074;SDS011;68476;42.710;23.388;2023-11-21T10:12:29;17.88;;;11.70;;
79074;SDS011;68476;42.710;23.388;2023-11-21T10:14:56;17.33;;;11.90;;
79074;SDS011;68476;42.710;23.388;2023-11-21T10:17:23;20.58;;;11.85;;
79074;SDS011;68476;42.710;23.388;2023-11-21T10:19:49;14.82;;;11.48;;
79074;SDS011;68476;42.710;23.388;2023-11-21T10:22:15;19.42;;;13.55;;
79074;SDS011;68476;42.710;23.388;2023-11-21T10:24:41;17.05;;;12.27;;
79074;SDS011;68476;42.710;23.388;2023-11-21T10:27:08;20.08;;;15.02;;
79074;SDS011;68476;42.710;23.388;2023-11-21T10:29:33;19.63;;;14.90;;
79074;SDS011;68476;42.710;23.388;2023-11-21T10:32:01;20.25;;;13.82;;
79074;SDS011;68476;42.710;23.388;2023-11-21T10:34:27;20.15;;;14.73;;
79074;SDS011;68476;42.710;23.388;2023-11-21T10:36:52;22.95;;;14.30;;
79074;SDS011;68476;42.710;23.388;2023-11-21T10:39:18;15.75;;;12.20;;
79074;SDS011;68476;42.710;23.388;2023-11-21T10:41:47;17.35;;;12.45;;
79074;SDS011;68476;42.710;23.388;2023-11-21T10:44:15;20.92;;;12.68;;
79074;SDS011;68476;42.710;23.388;2023-11-21T10:46:55;18.35;;;12.43;;
79074;SDS011;68476;42.710;23.388;2023-11-21T10:49:26;18.70;;;12.48;;
79074;SDS011;68476;42.710;23.388;2023-11-21T10:51:52;28.13;;;14.35;;
79074;SDS011;68476;42.710;23.388;2023-11-21T10:54:21;15.73;;;11.85;;
79074;SDS011;68476;42.710;23.388;2023-11-21T10:56:48;16.70;;;10.90;;
79074;SDS011;68476;42.710;23.388;2023-11-21T10:59:15;18.67;;;11.38;;
79074;SDS011;68476;42.710;23.388;2023-11-21T11:01:42;17.88;;;11.32;;
79074;SDS011;68476;42.710;23.388;2023-11-21T11:04:08;18.45;;;10.93;;
79074;SDS011;68476;42.710;23.388;2023-11-21T11:06:39;15.15;;;9.70;;
79074;SDS011;68476;42.710;23.388;2023-11-21T11:09:05;15.05;;;10.27;;
79074;SDS011;68476;42.710;23.388;2023-11-21T11:11:33;15.43;;;10.30;;
79074;SDS011;68476;42.710;23.388;2023-11-21T11:13:58;19.13;;;12.00;;
79074;SDS011;68476;42.710;23.388;2023-11-21T11:16:25;17.80;;;10.77;;
79074;SDS011;68476;42.710;23.388;2023-11-21T11:18:51;14.00;;;11.38;;
79074;SDS011;68476;42.710;23.388;2023-11-21T11:24:13;14.88;;;10.57;;
79074;SDS011;68476;42.710;23.388;2023-11-21T11:26:46;16.50;;;11.52;;
79074;SDS011;68476;42.710;23.388;2023-11-21T11:34:30;19.42;;;12.45;;
79074;SDS011;68476;42.710;23.388;2023-11-21T11:37:01;16.95;;;11.27;;
79074;SDS011;68476;42.710;23.388;2023-11-21T11:39:37;20.50;;;12.02;;
79074;SDS011;68476;42.710;23.388;2023-11-21T11:42:04;17.67;;;11.45;;
79074;SDS011;68476;42.710;23.388;2023-11-21T11:52:48;18.52;;;10.75;;
79074;SDS011;68476;42.710;23.388;2023-11-21T11:55:14;18.85;;;11.75;;
79074;SDS011;68476;42.710;23.388;2023-11-21T11:57:43;16.23;;;11.32;;
79074;SDS011;68476;42.710;23.388;2023-11-21T12:02:40;17.73;;;12.80;;
79074;SDS011;68476;42.710;23.388;2023-11-21T12:05:09;18.90;;;13.30;;
79074;SDS011;68476;42.710;23.388;2023-11-21T12:10:11;18.92;;;12.55;;
79074;SDS011;68476;42.710;23.388;2023-11-21T12:12:37;15.93;;;11.15;;
79074;SDS011;68476;42.710;23.388;2023-11-21T12:15:04;16.48;;;11.25;;
79074;SDS011;68476;42.710;23.388;2023-11-21T12:17:30;20.38;;;11.10;;
79074;SDS011;68476;42.710;23.388;2023-11-21T12:20:01;16.65;;;11.55;;
79074;SDS011;68476;42.710;23.388;2023-11-21T12:22:28;16.92;;;11.73;;
79074;SDS011;68476;42.710;23.388;2023-11-21T12:24:53;17.15;;;12.10;;
79074;SDS011;68476;42.710;23.388;2023-11-21T12:27:20;17.40;;;11.05;;
79074;SDS011;68476;42.710;23.388;2023-11-21T12:29:45;15.63;;;10.45;;
79074;SDS011;68476;42.710;23.388;2023-11-21T12:32:11;14.95;;;11.23;;
79074;SDS011;68476;42.710;23.388;2023-11-21T12:34:36;15.55;;;11.27;;
79074;SDS011;68476;42.710;23.388;2023-11-21T12:37:03;18.00;;;12.77;;
79074;SDS011;68476;42.710;23.388;2023-11-21T12:39:29;21.42;;;14.90;;
79074;SDS011;68476;42.710;23.388;2023-11-21T12:41:54;25.70;;;14.90;;
79074;SDS011;68476;42.710;23.388;2023-11-21T12:44:19;24.67;;;14.63;;
79074;SDS011;68476;42.710;23.388;2023-11-21T12:46:45;23.70;;;15.30;;
79074;SDS011;68476;42.710;23.388;2023-11-21T12:49:11;24.30;;;15.93;;
79074;SDS011;68476;42.710;23.388;2023-11-21T12:51:42;23.33;;;14.45;;
79074;SDS011;68476;42.710;23.388;2023-11-21T12:54:07;23.30;;;16.13;;
79074;SDS011;68476;42.710;23.388;2023-11-21T12:56:38;25.77;;;15.10;;
79074;SDS011;68476;42.710;23.388;2023-11-21T12:59:03;19.95;;;12.80;;
79074;SDS011;68476;42.710;23.388;2023-11-21T13:01:29;19.15;;;12.70;;
79074;SDS011;68476;42.710;23.388;2023-11-21T13:03:59;25.77;;;15.52;;
79074;SDS011;68476;42.710;23.388;2023-11-21T13:06:24;23.85;;;14.65;;
79074;SDS011;68476;42.710;23.388;2023-11-21T13:08:51;23.83;;;14.75;;
79074;SDS011;68476;42.710;23.388;2023-11-21T13:11:16;24.67;;;14.90;;
79074;SDS011;68476;42.710;23.388;2023-11-21T13:13:42;24.13;;;14.65;;
79074;SDS011;68476;42.710;23.388;2023-11-21T13:16:11;25.65;;;15.65;;
79074;SDS011;68476;42.710;23.388;2023-11-21T13:18:36;22.60;;;14.80;;
79074;SDS011;68476;42.710;23.388;2023-11-21T13:21:05;26.77;;;15.40;;
79074;SDS011;68476;42.710;23.388;2023-11-21T13:23:36;24.02;;;15.27;;
79074;SDS011;68476;42.710;23.388;2023-11-21T13:26:03;27.13;;;15.40;;
79074;SDS011;68476;42.710;23.388;2023-11-21T13:28:29;23.45;;;16.05;;
79074;SDS011;68476;42.710;23.388;2023-11-21T13:30:57;23.02;;;14.75;;
79074;SDS011;68476;42.710;23.388;2023-11-21T13:33:28;29.13;;;17.73;;
79074;SDS011;68476;42.710;23.388;2023-11-21T13:35:53;29.85;;;18.23;;
79074;SDS011;68476;42.710;23.388;2023-11-21T13:38:20;41.05;;;21.85;;
79074;SDS011;68476;42.710;23.388;2023-11-21T13:40:54;28.65;;;17.98;;
79074;SDS011;68476;42.710;23.388;2023-11-21T13:43:23;38.17;;;22.17;;
79074;SDS011;68476;42.710;23.388;2023-11-21T13:45:49;36.25;;;21.23;;
79074;SDS011;68476;42.710;23.388;2023-11-21T13:48:37;28.90;;;17.55;;
79074;SDS011;68476;42.710;23.388;2023-11-21T13:51:07;40.33;;;20.88;;
79074;SDS011;68476;42.710;23.388;2023-11-21T13:53:42;30.27;;;17.17;;
79074;SDS011;68476;42.710;23.388;2023-11-21T13:56:07;35.03;;;20.20;;
79074;SDS011;68476;42.710;23.388;2023-11-21T13:58:33;36.17;;;21.58;;
79074;SDS011;68476;42.710;23.388;2023-11-21T14:01:19;46.00;;;25.75;;
79074;SDS011;68476;42.710;23.388;2023-11-21T14:04:00;50.95;;;29.02;;
79074;SDS011;68476;42.710;23.388;2023-11-21T14:06:58;42.03;;;24.40;;
79074;SDS011;68476;42.710;23.388;2023-11-21T14:09:25;52.35;;;26.30;;
79074;SDS011;68476;42.710;23.388;2023-11-21T14:11:58;43.85;;;27.85;;
79074;SDS011;68476;42.710;23.388;2023-11-21T14:14:25;43.20;;;27.02;;
79074;SDS011;68476;42.710;23.388;2023-11-21T14:16:53;44.17;;;26.50;;
79074;SDS011;68476;42.710;23.388;2023-11-21T14:19:21;46.47;;;27.65;;
79074;SDS011;68476;42.710;23.388;2023-11-21T14:21:46;50.72;;;27.77;;
79074;SDS011;68476;42.710;23.388;2023-11-21T14:24:12;50.67;;;30.70;;
79074;SDS011;68476;42.710;23.388;2023-11-21T14:26:41;52.60;;;30.73;;
79074;SDS011;68476;42.710;23.388;2023-11-21T14:29:08;50.50;;;30.73;;